Airfield :
LOGIN :

Register | Disclaimer

   EN    FR    IT 

 










Legend :    VFR   Marginal VFR   IFR   Intensive IFR   Very Intensive IFR
Visi :
Ceiling :
>= 8 km
>= 3000ft
5 to 8 km
1000 to 3000 ft
1500m to 5 km
500 to 1000 ft
800 to 1500m
200 to 500 ft
< 800m
< 200 ft
Symbols :   Thunderstorms  Fog  Heavy snow  Heavy precipitations  Wind > 20 kt
SIGMETs :     Misc.  Thunderstorms  Icing  Turbulence  Mountain Waves  Volcanic Ashes






- Airport Elevation : 359 ft
- IATA code : BVA


LFOB - Beauvais

CURRENT METAR :
  • 161330Z AUTO 30010KT 9999 OVC027 20/13 Q1020 NOSIG

EXPIRED METARs :
  • 161300Z AUTO 31011KT 9999 OVC028 20/13 Q1020 NOSIG
  • 161230Z AUTO 31011KT 9999 BKN030 BKN056 OVC066 20/13 Q1020 NOSIG
  • 161200Z AUTO 29009KT 9999 BKN023 BKN030 OVC056 19/14 Q1020 NOSIG
  • 161130Z AUTO 29010KT 9999 BKN023 OVC028 19/13 Q1020 NOSIG

TAF TAF LFOB
Valid from the 16 at 12:00 until the 17 at 12:00 UTC


161100Z 1612/1712 33010KT 9999 BKN020 BKN030
BECMG 1619/1622 VRB02KT
ATIS : +33 3 44 11 49 28



MET'MAP, your aeronautical weather chart ! - Copyright ORBIFLY December 2007 - Disclaimer

ORBIFLY MET'MAP TEAM :

Programming & Development : Alexandra Zaïnal
Concept & original design : Baudouin d'Aumeries
Assistance for programming : Marc-Olivier Méhu
Technical & hardware support : Manuel Goepfert

Contact : metmap@orbifly.com




SOURCES & CREDITS :

   NOAA